Moxee City, Washington
Current Conditions -  °F | °C
As of 4:56 PM on Tuesday 25 Nov 2014 (Local Time) from K1YT Reporting Station
Broken Clouds Broken Clouds  
Wind Chill: 35°   Ceiling: 2200
Heat Index: 42°   Visibility: 10mi
Dew Point: 38°   Wind: 12mph
Humidity: 85%   Direction: 90°E
Pressure: 30.2"   Gusts: NA
Location:  46.5157°N, 120.098°W
Report Text: K1YT 260056Z AUTO 09010KT 10SM BKN022 06/03 A3020 RMK AO2 CIG 022V055 SLPNO T00550032
Loading
Personal Weather Stations






























Interactive Weather Map New forecast layout! Learn more

10-Day Weather Forecast

Advertisements
Track Severe Weather on mobile